sensor_id;sensor_type;location;lat;lon;timestamp;P1;durP1;ratioP1;P2;durP2;ratioP2
29854;SDS011;16733;48.738;9.106;2023-07-29T00:01:35;0.10;;;0.10;;
29854;SDS011;16733;48.738;9.106;2023-07-29T00:04:01;0.10;;;0.10;;
29854;SDS011;16733;48.738;9.106;2023-07-29T00:06:28;0.10;;;0.10;;
29854;SDS011;16733;48.738;9.106;2023-07-29T00:08:56;0.10;;;0.10;;
29854;SDS011;16733;48.738;9.106;2023-07-29T00:11:22;0.10;;;0.10;;
29854;SDS011;16733;48.738;9.106;2023-07-29T00:13:48;0.00;;;0.00;;
29854;SDS011;16733;48.738;9.106;2023-07-29T00:16:15;0.10;;;0.10;;
29854;SDS011;16733;48.738;9.106;2023-07-29T00:18:42;0.00;;;0.00;;
29854;SDS011;16733;48.738;9.106;2023-07-29T00:21:08;0.10;;;0.10;;
29854;SDS011;16733;48.738;9.106;2023-07-29T00:23:38;0.10;;;0.10;;
29854;SDS011;16733;48.738;9.106;2023-07-29T00:26:04;0.00;;;0.00;;
29854;SDS011;16733;48.738;9.106;2023-07-29T00:28:30;0.00;;;0.00;;
29854;SDS011;16733;48.738;9.106;2023-07-29T00:30:56;0.00;;;0.00;;
29854;SDS011;16733;48.738;9.106;2023-07-29T00:33:22;0.10;;;0.10;;
29854;SDS011;16733;48.738;9.106;2023-07-29T00:35:48;0.08;;;0.08;;
29854;SDS011;16733;48.738;9.106;2023-07-29T00:38:14;0.00;;;0.00;;
29854;SDS011;16733;48.738;9.106;2023-07-29T00:40:40;0.00;;;0.00;;
29854;SDS011;16733;48.738;9.106;2023-07-29T00:43:06;0.00;;;0.00;;
29854;SDS011;16733;48.738;9.106;2023-07-29T00:45:32;0.00;;;0.00;;
29854;SDS011;16733;48.738;9.106;2023-07-29T00:47:59;0.10;;;0.10;;
29854;SDS011;16733;48.738;9.106;2023-07-29T00:50:25;0.00;;;0.00;;
29854;SDS011;16733;48.738;9.106;2023-07-29T00:52:53;0.03;;;0.03;;
29854;SDS011;16733;48.738;9.106;2023-07-29T00:55:19;0.10;;;0.10;;
29854;SDS011;16733;48.738;9.106;2023-07-29T00:57:45;0.08;;;0.08;;
29854;SDS011;16733;48.738;9.106;2023-07-29T01:00:13;0.00;;;0.00;;
29854;SDS011;16733;48.738;9.106;2023-07-29T01:02:40;0.10;;;0.10;;
29854;SDS011;16733;48.738;9.106;2023-07-29T01:05:07;0.00;;;0.00;;
29854;SDS011;16733;48.738;9.106;2023-07-29T01:07:39;0.00;;;0.00;;
29854;SDS011;16733;48.738;9.106;2023-07-29T01:15:24;0.00;;;0.00;;
29854;SDS011;16733;48.738;9.106;2023-07-29T01:17:55;0.00;;;0.00;;
29854;SDS011;16733;48.738;9.106;2023-07-29T01:20:21;0.00;;;0.00;;
29854;SDS011;16733;48.738;9.106;2023-07-29T01:22:49;0.00;;;0.00;;
29854;SDS011;16733;48.738;9.106;2023-07-29T01:25:16;0.10;;;0.10;;
29854;SDS011;16733;48.738;9.106;2023-07-29T01:27:42;0.10;;;0.10;;
29854;SDS011;16733;48.738;9.106;2023-07-29T01:30:08;0.10;;;0.10;;
29854;SDS011;16733;48.738;9.106;2023-07-29T01:32:36;0.00;;;0.00;;
29854;SDS011;16733;48.738;9.106;2023-07-29T01:35:27;0.10;;;0.10;;
29854;SDS011;16733;48.738;9.106;2023-07-29T01:37:55;0.10;;;0.10;;
29854;SDS011;16733;48.738;9.106;2023-07-29T01:40:25;0.00;;;0.00;;
29854;SDS011;16733;48.738;9.106;2023-07-29T01:42:52;0.00;;;0.00;;
29854;SDS011;16733;48.738;9.106;2023-07-29T01:45:18;0.00;;;0.00;;
29854;SDS011;16733;48.738;9.106;2023-07-29T01:47:44;0.10;;;0.10;;
29854;SDS011;16733;48.738;9.106;2023-07-29T01:50:11;0.00;;;0.00;;
29854;SDS011;16733;48.738;9.106;2023-07-29T01:52:37;0.00;;;0.00;;
29854;SDS011;16733;48.738;9.106;2023-07-29T01:55:03;0.00;;;0.00;;
29854;SDS011;16733;48.738;9.106;2023-07-29T01:57:29;0.00;;;0.00;;
29854;SDS011;16733;48.738;9.106;2023-07-29T01:59:55;0.00;;;0.00;;
29854;SDS011;16733;48.738;9.106;2023-07-29T02:02:21;0.10;;;0.10;;
29854;SDS011;16733;48.738;9.106;2023-07-29T02:04:47;0.10;;;0.10;;
29854;SDS011;16733;48.738;9.106;2023-07-29T02:07:16;0.00;;;0.00;;
29854;SDS011;16733;48.738;9.106;2023-07-29T02:09:43;0.00;;;0.00;;
29854;SDS011;16733;48.738;9.106;2023-07-29T02:12:09;0.00;;;0.00;;
29854;SDS011;16733;48.738;9.106;2023-07-29T02:14:35;0.00;;;0.00;;
29854;SDS011;16733;48.738;9.106;2023-07-29T02:17:01;0.10;;;0.10;;
29854;SDS011;16733;48.738;9.106;2023-07-29T02:19:27;0.05;;;0.05;;
29854;SDS011;16733;48.738;9.106;2023-07-29T02:21:53;0.00;;;0.00;;
29854;SDS011;16733;48.738;9.106;2023-07-29T02:24:19;0.10;;;0.10;;
29854;SDS011;16733;48.738;9.106;2023-07-29T02:26:44;0.10;;;0.10;;
29854;SDS011;16733;48.738;9.106;2023-07-29T02:29:10;0.00;;;0.00;;
29854;SDS011;16733;48.738;9.106;2023-07-29T02:31:36;0.10;;;0.10;;
29854;SDS011;16733;48.738;9.106;2023-07-29T02:34:03;0.00;;;0.00;;
29854;SDS011;16733;48.738;9.106;2023-07-29T02:36:29;0.00;;;0.00;;
29854;SDS011;16733;48.738;9.106;2023-07-29T02:38:55;0.10;;;0.10;;
29854;SDS011;16733;48.738;9.106;2023-07-29T02:41:21;0.00;;;0.00;;
29854;SDS011;16733;48.738;9.106;2023-07-29T02:43:48;0.00;;;0.00;;
29854;SDS011;16733;48.738;9.106;2023-07-29T02:46:14;0.00;;;0.00;;
29854;SDS011;16733;48.738;9.106;2023-07-29T02:48:41;0.00;;;0.00;;
29854;SDS011;16733;48.738;9.106;2023-07-29T02:51:07;0.00;;;0.00;;
29854;SDS011;16733;48.738;9.106;2023-07-29T02:53:33;0.00;;;0.00;;
29854;SDS011;16733;48.738;9.106;2023-07-29T02:56:01;0.00;;;0.00;;
29854;SDS011;16733;48.738;9.106;2023-07-29T02:58:27;0.00;;;0.00;;
29854;SDS011;16733;48.738;9.106;2023-07-29T03:00:59;0.00;;;0.00;;
29854;SDS011;16733;48.738;9.106;2023-07-29T03:03:26;0.00;;;0.00;;
29854;SDS011;16733;48.738;9.106;2023-07-29T03:06:02;0.00;;;0.00;;
29854;SDS011;16733;48.738;9.106;2023-07-29T03:08:28;0.00;;;0.00;;
29854;SDS011;16733;48.738;9.106;2023-07-29T03:10:54;0.10;;;0.10;;
29854;SDS011;16733;48.738;9.106;2023-07-29T03:13:20;0.10;;;0.10;;
29854;SDS011;16733;48.738;9.106;2023-07-29T03:15:46;0.00;;;0.00;;
29854;SDS011;16733;48.738;9.106;2023-07-29T03:18:12;0.00;;;0.00;;
29854;SDS011;16733;48.738;9.106;2023-07-29T03:20:38;0.00;;;0.00;;
29854;SDS011;16733;48.738;9.106;2023-07-29T03:23:04;0.00;;;0.00;;
29854;SDS011;16733;48.738;9.106;2023-07-29T03:25:30;0.05;;;0.05;;
29854;SDS011;16733;48.738;9.106;2023-07-29T03:27:56;0.00;;;0.00;;
29854;SDS011;16733;48.738;9.106;2023-07-29T03:30:22;0.00;;;0.00;;
29854;SDS011;16733;48.738;9.106;2023-07-29T03:32:48;0.10;;;0.10;;
29854;SDS011;16733;48.738;9.106;2023-07-29T03:35:15;0.00;;;0.00;;
29854;SDS011;16733;48.738;9.106;2023-07-29T03:37:41;0.00;;;0.00;;
29854;SDS011;16733;48.738;9.106;2023-07-29T03:40:07;0.00;;;0.00;;
29854;SDS011;16733;48.738;9.106;2023-07-29T03:42:34;0.10;;;0.10;;
29854;SDS011;16733;48.738;9.106;2023-07-29T03:45:00;0.10;;;0.10;;
29854;SDS011;16733;48.738;9.106;2023-07-29T03:47:26;0.00;;;0.00;;
29854;SDS011;16733;48.738;9.106;2023-07-29T03:49:52;0.10;;;0.10;;
29854;SDS011;16733;48.738;9.106;2023-07-29T03:52:19;0.00;;;0.00;;
29854;SDS011;16733;48.738;9.106;2023-07-29T03:54:45;0.00;;;0.00;;
29854;SDS011;16733;48.738;9.106;2023-07-29T03:57:11;0.00;;;0.00;;
29854;SDS011;16733;48.738;9.106;2023-07-29T03:59:37;0.10;;;0.10;;
29854;SDS011;16733;48.738;9.106;2023-07-29T04:02:03;0.00;;;0.00;;
29854;SDS011;16733;48.738;9.106;2023-07-29T04:04:29;0.10;;;0.10;;
29854;SDS011;16733;48.738;9.106;2023-07-29T04:06:55;0.03;;;0.03;;
29854;SDS011;16733;48.738;9.106;2023-07-29T04:09:21;0.00;;;0.00;;
29854;SDS011;16733;48.738;9.106;2023-07-29T04:11:48;0.00;;;0.00;;
29854;SDS011;16733;48.738;9.106;2023-07-29T04:14:14;0.10;;;0.10;;
29854;SDS011;16733;48.738;9.106;2023-07-29T04:16:40;0.00;;;0.00;;
29854;SDS011;16733;48.738;9.106;2023-07-29T04:19:06;0.00;;;0.00;;
29854;SDS011;16733;48.738;9.106;2023-07-29T04:21:32;0.10;;;0.10;;
29854;SDS011;16733;48.738;9.106;2023-07-29T04:23:58;0.10;;;0.10;;
29854;SDS011;16733;48.738;9.106;2023-07-29T04:26:24;0.10;;;0.10;;
29854;SDS011;16733;48.738;9.106;2023-07-29T04:28:50;0.00;;;0.00;;
29854;SDS011;16733;48.738;9.106;2023-07-29T04:31:16;0.00;;;0.00;;
29854;SDS011;16733;48.738;9.106;2023-07-29T04:33:42;0.10;;;0.10;;
29854;SDS011;16733;48.738;9.106;2023-07-29T04:36:08;0.10;;;0.10;;
29854;SDS011;16733;48.738;9.106;2023-07-29T04:38:36;0.00;;;0.00;;
29854;SDS011;16733;48.738;9.106;2023-07-29T04:41:02;0.05;;;0.05;;
29854;SDS011;16733;48.738;9.106;2023-07-29T04:43:32;0.00;;;0.00;;
29854;SDS011;16733;48.738;9.106;2023-07-29T04:45:58;0.00;;;0.00;;
29854;SDS011;16733;48.738;9.106;2023-07-29T04:48:24;0.00;;;0.00;;
29854;SDS011;16733;48.738;9.106;2023-07-29T04:50:50;0.10;;;0.10;;
29854;SDS011;16733;48.738;9.106;2023-07-29T04:53:16;0.00;;;0.00;;
29854;SDS011;16733;48.738;9.106;2023-07-29T04:55:42;0.10;;;0.10;;
29854;SDS011;16733;48.738;9.106;2023-07-29T04:58:08;0.10;;;0.10;;
29854;SDS011;16733;48.738;9.106;2023-07-29T05:00:34;0.08;;;0.08;;
29854;SDS011;16733;48.738;9.106;2023-07-29T05:03:00;0.00;;;0.00;;
29854;SDS011;16733;48.738;9.106;2023-07-29T05:05:26;0.10;;;0.10;;
29854;SDS011;16733;48.738;9.106;2023-07-29T05:07:52;0.00;;;0.00;;
29854;SDS011;16733;48.738;9.106;2023-07-29T05:10:18;0.10;;;0.10;;
29854;SDS011;16733;48.738;9.106;2023-07-29T05:12:45;0.05;;;0.05;;
29854;SDS011;16733;48.738;9.106;2023-07-29T05:15:11;0.00;;;0.00;;
29854;SDS011;16733;48.738;9.106;2023-07-29T05:17:37;0.10;;;0.10;;
29854;SDS011;16733;48.738;9.106;2023-07-29T05:20:03;0.00;;;0.00;;
29854;SDS011;16733;48.738;9.106;2023-07-29T05:22:29;0.10;;;0.10;;
29854;SDS011;16733;48.738;9.106;2023-07-29T05:24:55;0.00;;;0.00;;
29854;SDS011;16733;48.738;9.106;2023-07-29T05:27:21;0.15;;;0.15;;
29854;SDS011;16733;48.738;9.106;2023-07-29T05:29:47;0.10;;;0.10;;
29854;SDS011;16733;48.738;9.106;2023-07-29T05:32:13;0.10;;;0.10;;
29854;SDS011;16733;48.738;9.106;2023-07-29T05:34:39;0.10;;;0.10;;
29854;SDS011;16733;48.738;9.106;2023-07-29T05:37:05;0.00;;;0.00;;
29854;SDS011;16733;48.738;9.106;2023-07-29T05:39:31;0.00;;;0.00;;
29854;SDS011;16733;48.738;9.106;2023-07-29T05:41:58;0.10;;;0.10;;
29854;SDS011;16733;48.738;9.106;2023-07-29T05:44:27;0.10;;;0.10;;
29854;SDS011;16733;48.738;9.106;2023-07-29T05:46:54;0.10;;;0.10;;
29854;SDS011;16733;48.738;9.106;2023-07-29T05:49:20;0.10;;;0.10;;
29854;SDS011;16733;48.738;9.106;2023-07-29T05:51:46;0.00;;;0.00;;
29854;SDS011;16733;48.738;9.106;2023-07-29T05:54:12;0.00;;;0.00;;
29854;SDS011;16733;48.738;9.106;2023-07-29T05:56:38;0.03;;;0.03;;
29854;SDS011;16733;48.738;9.106;2023-07-29T05:59:04;0.10;;;0.10;;
29854;SDS011;16733;48.738;9.106;2023-07-29T06:01:30;0.00;;;0.00;;
29854;SDS011;16733;48.738;9.106;2023-07-29T06:03:56;0.10;;;0.10;;
29854;SDS011;16733;48.738;9.106;2023-07-29T06:06:22;0.70;;;0.30;;
29854;SDS011;16733;48.738;9.106;2023-07-29T06:08:48;0.00;;;0.00;;
29854;SDS011;16733;48.738;9.106;2023-07-29T06:11:14;0.00;;;0.00;;
29854;SDS011;16733;48.738;9.106;2023-07-29T06:13:40;0.10;;;0.10;;
29854;SDS011;16733;48.738;9.106;2023-07-29T06:16:06;0.00;;;0.00;;
29854;SDS011;16733;48.738;9.106;2023-07-29T06:18:32;0.00;;;0.00;;
29854;SDS011;16733;48.738;9.106;2023-07-29T06:20:58;0.08;;;0.08;;
29854;SDS011;16733;48.738;9.106;2023-07-29T06:23:24;0.00;;;0.00;;
29854;SDS011;16733;48.738;9.106;2023-07-29T06:25:50;0.10;;;0.10;;
29854;SDS011;16733;48.738;9.106;2023-07-29T06:28:16;0.10;;;0.10;;
29854;SDS011;16733;48.738;9.106;2023-07-29T06:30:42;0.00;;;0.00;;
29854;SDS011;16733;48.738;9.106;2023-07-29T06:33:08;0.10;;;0.10;;
29854;SDS011;16733;48.738;9.106;2023-07-29T06:35:34;0.00;;;0.00;;
29854;SDS011;16733;48.738;9.106;2023-07-29T06:38:00;0.00;;;0.00;;
29854;SDS011;16733;48.738;9.106;2023-07-29T06:40:26;0.10;;;0.10;;
29854;SDS011;16733;48.738;9.106;2023-07-29T06:42:52;0.00;;;0.00;;
29854;SDS011;16733;48.738;9.106;2023-07-29T06:45:18;0.20;;;0.20;;
29854;SDS011;16733;48.738;9.106;2023-07-29T06:47:44;0.10;;;0.10;;
29854;SDS011;16733;48.738;9.106;2023-07-29T06:50:10;0.03;;;0.03;;
29854;SDS011;16733;48.738;9.106;2023-07-29T06:52:37;0.00;;;0.00;;
29854;SDS011;16733;48.738;9.106;2023-07-29T06:55:03;0.00;;;0.00;;
29854;SDS011;16733;48.738;9.106;2023-07-29T06:57:29;1.27;;;0.15;;
29854;SDS011;16733;48.738;9.106;2023-07-29T06:59:55;0.00;;;0.00;;
29854;SDS011;16733;48.738;9.106;2023-07-29T07:02:21;0.00;;;0.00;;
29854;SDS011;16733;48.738;9.106;2023-07-29T07:04:47;0.00;;;0.00;;
29854;SDS011;16733;48.738;9.106;2023-07-29T07:07:13;0.00;;;0.00;;
29854;SDS011;16733;48.738;9.106;2023-07-29T07:09:39;0.00;;;0.00;;
29854;SDS011;16733;48.738;9.106;2023-07-29T07:12:05;0.00;;;0.00;;
29854;SDS011;16733;48.738;9.106;2023-07-29T07:14:31;0.10;;;0.10;;
29854;SDS011;16733;48.738;9.106;2023-07-29T07:16:57;0.20;;;0.20;;
29854;SDS011;16733;48.738;9.106;2023-07-29T07:19:23;0.00;;;0.00;;
29854;SDS011;16733;48.738;9.106;2023-07-29T07:21:49;0.00;;;0.00;;
29854;SDS011;16733;48.738;9.106;2023-07-29T07:24:15;0.00;;;0.00;;
29854;SDS011;16733;48.738;9.106;2023-07-29T07:26:41;0.20;;;0.20;;
29854;SDS011;16733;48.738;9.106;2023-07-29T07:29:07;0.00;;;0.00;;
29854;SDS011;16733;48.738;9.106;2023-07-29T07:31:33;0.00;;;0.00;;
29854;SDS011;16733;48.738;9.106;2023-07-29T07:34:00;0.10;;;0.10;;
29854;SDS011;16733;48.738;9.106;2023-07-29T07:36:27;0.00;;;0.00;;
29854;SDS011;16733;48.738;9.106;2023-07-29T07:38:54;0.25;;;0.25;;
29854;SDS011;16733;48.738;9.106;2023-07-29T07:41:20;0.00;;;0.00;;
29854;SDS011;16733;48.738;9.106;2023-07-29T07:43:46;0.10;;;0.10;;
29854;SDS011;16733;48.738;9.106;2023-07-29T07:46:12;0.20;;;0.20;;
29854;SDS011;16733;48.738;9.106;2023-07-29T07:48:38;0.00;;;0.00;;
29854;SDS011;16733;48.738;9.106;2023-07-29T07:51:13;0.00;;;0.00;;
29854;SDS011;16733;48.738;9.106;2023-07-29T07:53:39;0.00;;;0.00;;
29854;SDS011;16733;48.738;9.106;2023-07-29T07:56:06;0.32;;;0.32;;
29854;SDS011;16733;48.738;9.106;2023-07-29T07:58:32;0.00;;;0.00;;
29854;SDS011;16733;48.738;9.106;2023-07-29T08:01:04;0.00;;;0.00;;
29854;SDS011;16733;48.738;9.106;2023-07-29T08:03:31;0.05;;;0.05;;
29854;SDS011;16733;48.738;9.106;2023-07-29T08:05:57;0.00;;;0.00;;
29854;SDS011;16733;48.738;9.106;2023-07-29T08:08:23;0.00;;;0.00;;
29854;SDS011;16733;48.738;9.106;2023-07-29T08:10:49;0.10;;;0.10;;
29854;SDS011;16733;48.738;9.106;2023-07-29T08:13:15;0.00;;;0.00;;
29854;SDS011;16733;48.738;9.106;2023-07-29T08:15:41;0.00;;;0.00;;
29854;SDS011;16733;48.738;9.106;2023-07-29T08:18:11;0.00;;;0.00;;
29854;SDS011;16733;48.738;9.106;2023-07-29T08:20:37;0.00;;;0.00;;
29854;SDS011;16733;48.738;9.106;2023-07-29T08:23:03;0.00;;;0.00;;
29854;SDS011;16733;48.738;9.106;2023-07-29T08:25:29;0.10;;;0.10;;
29854;SDS011;16733;48.738;9.106;2023-07-29T08:27:55;0.00;;;0.00;;
29854;SDS011;16733;48.738;9.106;2023-07-29T08:30:21;0.00;;;0.00;;
29854;SDS011;16733;48.738;9.106;2023-07-29T08:32:47;0.00;;;0.00;;
29854;SDS011;16733;48.738;9.106;2023-07-29T08:35:13;0.00;;;0.00;;
29854;SDS011;16733;48.738;9.106;2023-07-29T08:37:39;0.00;;;0.00;;
29854;SDS011;16733;48.738;9.106;2023-07-29T08:40:05;0.00;;;0.00;;
29854;SDS011;16733;48.738;9.106;2023-07-29T08:42:31;0.00;;;0.00;;
29854;SDS011;16733;48.738;9.106;2023-07-29T08:45:00;0.00;;;0.00;;
29854;SDS011;16733;48.738;9.106;2023-07-29T08:47:27;0.00;;;0.00;;
29854;SDS011;16733;48.738;9.106;2023-07-29T08:49:53;0.00;;;0.00;;
29854;SDS011;16733;48.738;9.106;2023-07-29T08:52:19;0.00;;;0.00;;
29854;SDS011;16733;48.738;9.106;2023-07-29T08:54:45;0.00;;;0.00;;
29854;SDS011;16733;48.738;9.106;2023-07-29T08:57:11;0.00;;;0.00;;
29854;SDS011;16733;48.738;9.106;2023-07-29T08:59:39;0.00;;;0.00;;
29854;SDS011;16733;48.738;9.106;2023-07-29T09:02:05;0.13;;;0.13;;
29854;SDS011;16733;48.738;9.106;2023-07-29T09:04:31;0.10;;;0.10;;
29854;SDS011;16733;48.738;9.106;2023-07-29T09:06:57;0.00;;;0.00;;
29854;SDS011;16733;48.738;9.106;2023-07-29T09:09:25;0.00;;;0.00;;
29854;SDS011;16733;48.738;9.106;2023-07-29T09:11:51;0.00;;;0.00;;
29854;SDS011;16733;48.738;9.106;2023-07-29T09:14:17;0.00;;;0.00;;
29854;SDS011;16733;48.738;9.106;2023-07-29T09:16:43;0.00;;;0.00;;
29854;SDS011;16733;48.738;9.106;2023-07-29T09:19:09;0.00;;;0.00;;
29854;SDS011;16733;48.738;9.106;2023-07-29T09:21:38;0.00;;;0.00;;
29854;SDS011;16733;48.738;9.106;2023-07-29T09:24:04;0.00;;;0.00;;
29854;SDS011;16733;48.738;9.106;2023-07-29T09:26:32;0.00;;;0.00;;
29854;SDS011;16733;48.738;9.106;2023-07-29T09:28:58;0.00;;;0.00;;
29854;SDS011;16733;48.738;9.106;2023-07-29T09:31:26;0.00;;;0.00;;
29854;SDS011;16733;48.738;9.106;2023-07-29T09:33:58;0.00;;;0.00;;
29854;SDS011;16733;48.738;9.106;2023-07-29T09:36:25;0.00;;;0.00;;
29854;SDS011;16733;48.738;9.106;2023-07-29T09:38:55;0.20;;;0.17;;
29854;SDS011;16733;48.738;9.106;2023-07-29T09:41:25;0.00;;;0.00;;
29854;SDS011;16733;48.738;9.106;2023-07-29T09:46:24;0.00;;;0.00;;
29854;SDS011;16733;48.738;9.106;2023-07-29T09:48:52;0.00;;;0.00;;
29854;SDS011;16733;48.738;9.106;2023-07-29T09:51:18;0.00;;;0.00;;
29854;SDS011;16733;48.738;9.106;2023-07-29T09:53:45;0.00;;;0.00;;
29854;SDS011;16733;48.738;9.106;2023-07-29T09:56:12;0.00;;;0.00;;
29854;SDS011;16733;48.738;9.106;2023-07-29T09:58:38;0.00;;;0.00;;
29854;SDS011;16733;48.738;9.106;2023-07-29T10:01:05;0.00;;;0.00;;
29854;SDS011;16733;48.738;9.106;2023-07-29T10:03:31;0.00;;;0.00;;
29854;SDS011;16733;48.738;9.106;2023-07-29T10:06:04;0.00;;;0.00;;
29854;SDS011;16733;48.738;9.106;2023-07-29T10:08:30;0.00;;;0.00;;
29854;SDS011;16733;48.738;9.106;2023-07-29T10:11:06;2.45;;;1.25;;
29854;SDS011;16733;48.738;9.106;2023-07-29T10:13:33;1.15;;;0.88;;
29854;SDS011;16733;48.738;9.106;2023-07-29T10:15:59;1.58;;;0.82;;
29854;SDS011;16733;48.738;9.106;2023-07-29T10:18:29;3.10;;;0.90;;
29854;SDS011;16733;48.738;9.106;2023-07-29T10:20:56;1.92;;;1.20;;
29854;SDS011;16733;48.738;9.106;2023-07-29T10:23:22;4.03;;;0.90;;
29854;SDS011;16733;48.738;9.106;2023-07-29T10:25:51;1.33;;;0.85;;
29854;SDS011;16733;48.738;9.106;2023-07-29T10:28:19;1.35;;;1.23;;
29854;SDS011;16733;48.738;9.106;2023-07-29T10:30:46;0.82;;;0.80;;
29854;SDS011;16733;48.738;9.106;2023-07-29T10:33:12;1.50;;;0.80;;
29854;SDS011;16733;48.738;9.106;2023-07-29T10:35:38;1.52;;;0.88;;
29854;SDS011;16733;48.738;9.106;2023-07-29T10:38:05;1.50;;;0.88;;
29854;SDS011;16733;48.738;9.106;2023-07-29T10:40:45;1.15;;;0.90;;
29854;SDS011;16733;48.738;9.106;2023-07-29T10:43:12;2.42;;;1.08;;
29854;SDS011;16733;48.738;9.106;2023-07-29T10:45:40;0.90;;;0.70;;
29854;SDS011;16733;48.738;9.106;2023-07-29T10:48:08;1.48;;;0.90;;
29854;SDS011;16733;48.738;9.106;2023-07-29T10:50:36;1.20;;;0.68;;
29854;SDS011;16733;48.738;9.106;2023-07-29T10:53:02;3.22;;;1.05;;
29854;SDS011;16733;48.738;9.106;2023-07-29T10:58:04;2.28;;;1.25;;
29854;SDS011;16733;48.738;9.106;2023-07-29T11:00:30;2.55;;;1.23;;
29854;SDS011;16733;48.738;9.106;2023-07-29T11:03:15;2.15;;;0.90;;
29854;SDS011;16733;48.738;9.106;2023-07-29T11:05:49;0.98;;;0.68;;
29854;SDS011;16733;48.738;9.106;2023-07-29T11:08:16;1.63;;;0.80;;
29854;SDS011;16733;48.738;9.106;2023-07-29T11:10:43;0.93;;;0.70;;
29854;SDS011;16733;48.738;9.106;2023-07-29T11:13:10;2.00;;;0.73;;
29854;SDS011;16733;48.738;9.106;2023-07-29T11:15:37;1.45;;;0.80;;
29854;SDS011;16733;48.738;9.106;2023-07-29T11:18:04;0.90;;;0.80;;
29854;SDS011;16733;48.738;9.106;2023-07-29T11:20:33;0.75;;;0.65;;
29854;SDS011;16733;48.738;9.106;2023-07-29T11:23:03;0.73;;;0.60;;
29854;SDS011;16733;48.738;9.106;2023-07-29T11:25:30;1.63;;;0.82;;
29854;SDS011;16733;48.738;9.106;2023-07-29T11:27:56;1.85;;;0.70;;
29854;SDS011;16733;48.738;9.106;2023-07-29T11:30:22;2.80;;;0.60;;
29854;SDS011;16733;48.738;9.106;2023-07-29T11:32:51;2.30;;;0.65;;
29854;SDS011;16733;48.738;9.106;2023-07-29T11:35:18;4.20;;;0.95;;
29854;SDS011;16733;48.738;9.106;2023-07-29T11:37:45;1.35;;;0.80;;
29854;SDS011;16733;48.738;9.106;2023-07-29T11:40:18;1.75;;;0.70;;
29854;SDS011;16733;48.738;9.106;2023-07-29T11:42:45;2.67;;;0.70;;
29854;SDS011;16733;48.738;9.106;2023-07-29T11:45:12;1.00;;;0.80;;
29854;SDS011;16733;48.738;9.106;2023-07-29T11:47:38;1.02;;;0.63;;
29854;SDS011;16733;48.738;9.106;2023-07-29T11:50:05;2.63;;;0.60;;
29854;SDS011;16733;48.738;9.106;2023-07-29T11:52:35;1.60;;;0.70;;
29854;SDS011;16733;48.738;9.106;2023-07-29T11:55:02;0.98;;;0.60;;
29854;SDS011;16733;48.738;9.106;2023-07-29T11:57:29;2.08;;;0.70;;
29854;SDS011;16733;48.738;9.106;2023-07-29T11:59:55;1.02;;;0.77;;
29854;SDS011;16733;48.738;9.106;2023-07-29T12:02:21;0.85;;;0.57;;
29854;SDS011;16733;48.738;9.106;2023-07-29T12:04:49;1.92;;;0.85;;
29854;SDS011;16733;48.738;9.106;2023-07-29T12:07:16;2.70;;;1.00;;
29854;SDS011;16733;48.738;9.106;2023-07-29T12:09:42;1.58;;;0.90;;
29854;SDS011;16733;48.738;9.106;2023-07-29T12:12:09;1.23;;;0.80;;
29854;SDS011;16733;48.738;9.106;2023-07-29T12:14:35;4.05;;;0.82;;
29854;SDS011;16733;48.738;9.106;2023-07-29T12:17:02;0.70;;;0.57;;
29854;SDS011;16733;48.738;9.106;2023-07-29T12:19:35;2.42;;;0.80;;
29854;SDS011;16733;48.738;9.106;2023-07-29T12:22:02;1.52;;;0.80;;
29854;SDS011;16733;48.738;9.106;2023-07-29T12:24:31;2.10;;;1.17;;
29854;SDS011;16733;48.738;9.106;2023-07-29T12:26:58;3.13;;;0.98;;
29854;SDS011;16733;48.738;9.106;2023-07-29T12:29:24;1.50;;;0.90;;
29854;SDS011;16733;48.738;9.106;2023-07-29T12:31:56;1.20;;;0.80;;
29854;SDS011;16733;48.738;9.106;2023-07-29T12:34:24;1.45;;;0.70;;
29854;SDS011;16733;48.738;9.106;2023-07-29T12:36:51;2.08;;;0.77;;
29854;SDS011;16733;48.738;9.106;2023-07-29T12:39:18;2.90;;;0.63;;
29854;SDS011;16733;48.738;9.106;2023-07-29T12:41:44;1.25;;;0.70;;
29854;SDS011;16733;48.738;9.106;2023-07-29T12:44:10;0.88;;;0.80;;
29854;SDS011;16733;48.738;9.106;2023-07-29T12:46:36;2.35;;;1.23;;
29854;SDS011;16733;48.738;9.106;2023-07-29T12:49:02;0.90;;;0.70;;
29854;SDS011;16733;48.738;9.106;2023-07-29T12:51:28;2.20;;;0.63;;
29854;SDS011;16733;48.738;9.106;2023-07-29T12:53:54;2.45;;;0.63;;
29854;SDS011;16733;48.738;9.106;2023-07-29T12:56:20;1.27;;;0.70;;
29854;SDS011;16733;48.738;9.106;2023-07-29T12:58:46;1.13;;;0.73;;
29854;SDS011;16733;48.738;9.106;2023-07-29T13:01:12;1.25;;;0.75;;
29854;SDS011;16733;48.738;9.106;2023-07-29T13:03:42;1.17;;;0.88;;
29854;SDS011;16733;48.738;9.106;2023-07-29T13:06:08;1.33;;;0.80;;
29854;SDS011;16733;48.738;9.106;2023-07-29T13:08:34;1.60;;;0.90;;
29854;SDS011;16733;48.738;9.106;2023-07-29T13:11:00;3.75;;;0.73;;
29854;SDS011;16733;48.738;9.106;2023-07-29T13:13:26;2.83;;;0.65;;
29854;SDS011;16733;48.738;9.106;2023-07-29T13:15:52;1.40;;;0.88;;
29854;SDS011;16733;48.738;9.106;2023-07-29T13:18:18;3.60;;;0.75;;
29854;SDS011;16733;48.738;9.106;2023-07-29T13:20:44;6.50;;;0.95;;
29854;SDS011;16733;48.738;9.106;2023-07-29T13:23:10;1.50;;;0.70;;
29854;SDS011;16733;48.738;9.106;2023-07-29T13:25:36;1.67;;;0.80;;
29854;SDS011;16733;48.738;9.106;2023-07-29T13:28:02;0.98;;;0.77;;
29854;SDS011;16733;48.738;9.106;2023-07-29T13:30:28;2.00;;;0.75;;
29854;SDS011;16733;48.738;9.106;2023-07-29T13:32:54;1.45;;;0.90;;
29854;SDS011;16733;48.738;9.106;2023-07-29T13:35:20;1.63;;;1.00;;
29854;SDS011;16733;48.738;9.106;2023-07-29T13:37:46;1.98;;;1.00;;
29854;SDS011;16733;48.738;9.106;2023-07-29T13:40:12;1.10;;;0.80;;
29854;SDS011;16733;48.738;9.106;2023-07-29T13:42:38;1.25;;;0.90;;
29854;SDS011;16733;48.738;9.106;2023-07-29T13:45:04;0.68;;;0.50;;
29854;SDS011;16733;48.738;9.106;2023-07-29T13:47:30;1.25;;;0.70;;
29854;SDS011;16733;48.738;9.106;2023-07-29T13:49:56;0.77;;;0.60;;
29854;SDS011;16733;48.738;9.106;2023-07-29T13:52:22;2.03;;;0.82;;
29854;SDS011;16733;48.738;9.106;2023-07-29T13:54:49;0.90;;;0.80;;
29854;SDS011;16733;48.738;9.106;2023-07-29T13:57:15;1.90;;;0.85;;
29854;SDS011;16733;48.738;9.106;2023-07-29T13:59:41;0.80;;;0.60;;
29854;SDS011;16733;48.738;9.106;2023-07-29T14:02:07;1.25;;;0.80;;
29854;SDS011;16733;48.738;9.106;2023-07-29T14:04:34;1.48;;;0.90;;
29854;SDS011;16733;48.738;9.106;2023-07-29T14:07:00;1.10;;;0.60;;
29854;SDS011;16733;48.738;9.106;2023-07-29T14:09:26;3.20;;;0.70;;
29854;SDS011;16733;48.738;9.106;2023-07-29T14:11:53;0.85;;;0.65;;
29854;SDS011;16733;48.738;9.106;2023-07-29T14:14:19;1.30;;;0.88;;
29854;SDS011;16733;48.738;9.106;2023-07-29T14:16:45;0.88;;;0.70;;
29854;SDS011;16733;48.738;9.106;2023-07-29T14:19:12;1.65;;;0.85;;
29854;SDS011;16733;48.738;9.106;2023-07-29T14:21:38;1.63;;;1.00;;
29854;SDS011;16733;48.738;9.106;2023-07-29T14:24:04;1.38;;;0.80;;
29854;SDS011;16733;48.738;9.106;2023-07-29T14:26:31;2.72;;;0.95;;
29854;SDS011;16733;48.738;9.106;2023-07-29T14:28:57;3.72;;;0.68;;
29854;SDS011;16733;48.738;9.106;2023-07-29T14:31:23;1.15;;;0.80;;
29854;SDS011;16733;48.738;9.106;2023-07-29T14:33:49;2.35;;;0.88;;
29854;SDS011;16733;48.738;9.106;2023-07-29T14:36:15;0.95;;;0.82;;
29854;SDS011;16733;48.738;9.106;2023-07-29T14:38:41;0.93;;;0.68;;
29854;SDS011;16733;48.738;9.106;2023-07-29T14:41:07;1.75;;;1.00;;
29854;SDS011;16733;48.738;9.106;2023-07-29T14:43:33;2.40;;;1.10;;
29854;SDS011;16733;48.738;9.106;2023-07-29T14:45:59;2.90;;;0.93;;
29854;SDS011;16733;48.738;9.106;2023-07-29T14:48:25;1.30;;;0.93;;
29854;SDS011;16733;48.738;9.106;2023-07-29T14:50:51;1.70;;;1.20;;
29854;SDS011;16733;48.738;9.106;2023-07-29T14:53:17;3.60;;;1.10;;
29854;SDS011;16733;48.738;9.106;2023-07-29T14:55:43;1.95;;;1.02;;